Time;durP1;ratioP1;P1;durP2;ratioP2;P2;SDS_P1;SDS_P2;PMS_P1;PMS_P2;Temp;Humidity;BMP_temperature;BMP_pressure;BME280_temperature;BME280_humidity;BME280_pressure;Samples;Min_cycle;Max_cycle;Signal;HPM_P1;HPM_P2
2022/12/10 00:00:51;;;;;;;25.67;12.60;;;;;;;5.25;64.68;99572.94;5149000;27;20216;-67
2022/12/10 00:03:18;;;;;;;27.40;14.17;;;;;;;5.21;64.74;99572.34;5154881;27;20208;-68
2022/12/10 00:05:46;;;;;;;25.10;13.10;;;;;;;5.19;64.73;99573.47;5142910;27;20213;-68
2022/12/10 00:08:14;;;;;;;25.40;13.97;;;;;;;5.22;64.76;99573.19;5147426;27;20201;-68
2022/12/10 00:10:41;;;;;;;25.50;13.67;;;;;;;5.20;64.80;99575.09;5145301;27;20754;-68
2022/12/10 00:13:09;;;;;;;28.67;14.20;;;;;;;5.23;64.77;99570.44;5145509;27;20196;-66
2022/12/10 00:15:37;;;;;;;28.90;13.67;;;;;;;5.23;64.70;99572.22;5146609;27;20681;-65
2022/12/10 00:18:06;;;;;;;29.97;13.80;;;;;;;5.22;64.85;99567.94;5143538;27;20672;-67
2022/12/10 00:20:34;;;;;;;29.37;14.60;;;;;;;5.26;64.57;99569.34;5150458;27;20203;-68
2022/12/10 00:23:01;;;;;;;28.33;14.67;;;;;;;5.26;64.59;99574.59;5148332;27;20211;-65
2022/12/10 00:25:29;;;;;;;26.63;13.13;;;;;;;5.14;65.00;99573.03;5147440;27;20210;-67
2022/12/10 00:27:57;;;;;;;25.40;14.17;;;;;;;5.14;65.27;99579.13;5141451;27;20838;-67
2022/12/10 00:30:25;;;;;;;24.63;13.90;;;;;;;5.20;65.16;99580.38;5145381;27;20738;-67
2022/12/10 00:32:53;;;;;;;27.80;14.67;;;;;;;5.26;64.88;99574.59;5145628;27;20246;-67
2022/12/10 00:35:22;;;;;;;25.23;13.30;;;;;;;5.29;64.61;99569.88;5150674;27;20213;-67
2022/12/10 00:37:50;;;;;;;27.33;14.00;;;;;;;5.27;64.67;99571.00;5152028;27;20212;-68
2022/12/10 00:40:18;;;;;;;24.50;13.43;;;;;;;5.38;64.34;99575.28;5150994;27;20245;-68
2022/12/10 00:42:46;;;;;;;26.30;14.17;;;;;;;5.32;64.31;99568.78;5142164;27;20201;-67
2022/12/10 00:45:13;;;;;;;27.77;14.20;;;;;;;5.24;64.47;99560.75;5146622;27;20220;-67
2022/12/10 00:47:41;;;;;;;26.27;14.00;;;;;;;5.26;64.77;99572.78;5150569;27;20197;-67
2022/12/10 00:50:09;;;;;;;26.67;13.27;;;;;;;5.26;64.50;99569.34;5146448;27;20202;-66
2022/12/10 00:52:38;;;;;;;26.63;14.20;;;;;;;5.24;64.99;99571.25;5148151;27;20201;-68
2022/12/10 00:55:07;;;;;;;26.33;13.83;;;;;;;5.24;64.70;99566.84;5149614;27;20212;-68
2022/12/10 00:57:35;;;;;;;26.60;12.70;;;;;;;5.33;64.50;99569.59;5148663;27;20257;-68
2022/12/10 01:00:04;;;;;;;22.77;12.93;;;;;;;5.37;64.32;99576.25;5142884;27;20236;-67
2022/12/10 01:02:31;;;;;;;25.03;12.80;;;;;;;5.30;64.41;99579.41;5151730;27;20205;-66
2022/12/10 01:04:59;;;;;;;25.17;13.70;;;;;;;5.21;64.62;99571.53;5141568;27;20215;-67
2022/12/10 01:07:27;;;;;;;24.07;12.67;;;;;;;5.23;64.94;99577.47;5149305;27;20223;-68
2022/12/10 01:09:56;;;;;;;25.97;14.03;;;;;;;5.18;64.87;99588.41;5140044;27;20230;-67
2022/12/10 01:12:23;;;;;;;26.73;13.23;;;;;;;5.09;65.00;99589.22;5149212;27;20269;-67
2022/12/10 01:14:51;;;;;;;27.00;14.13;;;;;;;5.00;65.48;99594.44;5146117;27;20851;-67
2022/12/10 01:17:21;;;;;;;28.00;13.43;;;;;;;5.03;65.69;99599.41;5144255;27;20217;-67
2022/12/10 01:19:49;;;;;;;26.93;13.57;;;;;;;5.05;65.33;99598.31;5145340;27;20228;-67
2022/12/10 01:22:16;;;;;;;27.00;13.77;;;;;;;5.04;65.34;99601.09;5148132;27;20208;-68
2022/12/10 01:24:44;;;;;;;25.43;14.00;;;;;;;5.00;65.58;99604.94;5146941;27;20208;-66
2022/12/10 01:27:13;;;;;;;24.17;13.03;;;;;;;5.00;65.74;99605.78;5141812;27;22095;-67
2022/12/10 01:29:41;;;;;;;26.80;13.40;;;;;;;5.03;65.63;99608.13;5120701;27;20217;-67
2022/12/10 01:32:09;;;;;;;26.00;14.47;;;;;;;5.05;65.17;99614.09;5124361;27;20544;-67
2022/12/10 01:34:37;;;;;;;28.33;14.90;;;;;;;5.08;65.30;99618.25;5125122;27;20208;-66
2022/12/10 01:37:04;;;;;;;28.00;14.40;;;;;;;5.17;64.83;99622.72;5132670;27;20830;-66
2022/12/10 01:39:32;;;;;;;23.33;13.13;;;;;;;5.20;64.51;99618.00;5122632;27;20232;-67
2022/12/10 01:42:01;;;;;;;28.07;14.30;;;;;;;5.14;64.63;99623.78;5128725;27;20308;-67
2022/12/10 01:44:59;;;;;;;29.83;15.00;;;;;;;4.97;65.10;99620.97;5123667;27;20205;-68
2022/12/10 01:47:27;;;;;;;24.90;13.17;;;;;;;4.91;65.44;99627.59;5121697;27;20766;-68
2022/12/10 01:49:55;;;;;;;27.37;14.00;;;;;;;4.92;65.54;99631.91;5127450;27;20288;-66
2022/12/10 01:52:26;;;;;;;28.27;13.57;;;;;;;4.88;65.64;99628.69;5128833;27;20772;-68
2022/12/10 01:54:54;;;;;;;27.30;13.67;;;;;;;4.87;65.90;99627.03;5128091;27;20908;-67
2022/12/10 01:57:25;;;;;;;26.50;13.80;;;;;;;4.88;65.66;99620.81;5121847;27;20205;-67
2022/12/10 01:59:56;;;;;;;27.50;13.57;;;;;;;4.83;65.81;99630.91;5126818;27;20227;-67
2022/12/10 02:02:35;;;;;;;26.23;14.03;;;;;;;4.86;65.88;99632.41;5129098;27;20249;-66
2022/12/10 02:05:14;;;;;;;27.60;13.57;;;;;;;4.88;65.78;99639.19;5126361;27;20208;-68
2022/12/10 02:07:53;;;;;;;26.37;13.70;;;;;;;4.86;65.35;99641.13;5124851;27;20266;-67
2022/12/10 02:10:31;;;;;;;27.00;13.93;;;;;;;4.87;65.51;99637.53;5124076;27;20208;-67
2022/12/10 02:13:05;;;;;;;28.17;14.23;;;;;;;4.84;65.45;99637.78;5123318;27;20206;-67
2022/12/10 02:15:36;;;;;;;27.90;14.47;;;;;;;4.87;65.57;99640.16;5130713;27;20561;-66
2022/12/10 02:18:09;;;;;;;25.57;13.40;;;;;;;4.89;64.92;99635.59;5118045;27;20206;-66
2022/12/10 02:20:41;;;;;;;27.60;13.63;;;;;;;4.89;64.79;99635.59;5118894;27;20216;-67
2022/12/10 02:23:12;;;;;;;24.77;12.43;;;;;;;4.91;64.68;99638.94;5122350;27;20209;-66
2022/12/10 02:25:47;;;;;;;28.57;14.43;;;;;;;4.90;64.47;99637.28;5121058;27;20218;-67
2022/12/10 02:28:22;;;;;;;28.43;14.80;;;;;;;4.91;64.40;99638.94;5143555;27;20236;-68
2022/12/10 02:30:53;;;;;;;26.47;14.50;;;;;;;4.92;64.27;99639.78;5135842;27;20201;-67
2022/12/10 02:33:24;;;;;;;26.47;13.37;;;;;;;4.85;64.43;99633.38;5140670;27;20299;-68
2022/12/10 02:35:54;;;;;;;24.37;13.07;;;;;;;4.86;64.36;99630.59;5139698;27;20629;-68
2022/12/10 02:38:26;;;;;;;27.10;13.83;;;;;;;4.85;64.58;99641.25;5142735;27;20660;-67
2022/12/10 02:41:01;;;;;;;28.80;14.37;;;;;;;4.88;64.42;99636.56;5148667;27;20600;-67
2022/12/10 02:43:31;;;;;;;27.43;13.30;;;;;;;4.88;64.27;99641.81;5139053;27;20204;-66
2022/12/10 02:46:04;;;;;;;27.03;13.67;;;;;;;4.92;63.84;99634.53;5143093;27;20258;-67
2022/12/10 02:48:32;;;;;;;24.63;12.53;;;;;;;4.94;63.64;99635.19;5138232;27;20208;-68
2022/12/10 02:51:00;;;;;;;25.43;13.17;;;;;;;4.96;63.61;99629.81;5151283;27;20210;-68
2022/12/10 02:53:28;;;;;;;27.07;13.30;;;;;;;4.96;63.23;99629.81;5138043;27;20239;-67
2022/12/10 02:56:09;;;;;;;25.33;12.20;;;;;;;4.85;63.47;99623.69;5145082;27;20659;-66
2022/12/10 02:58:46;;;;;;;27.37;13.80;;;;;;;4.84;63.72;99626.44;5135792;27;20210;-67
2022/12/10 03:01:28;;;;;;;23.60;12.27;;;;;;;4.79;63.95;99633.91;5141536;27;20318;-66
2022/12/10 03:04:00;;;;;;;28.50;13.23;;;;;;;4.80;63.66;99631.16;5138894;27;20780;-68
2022/12/10 03:06:33;;;;;;;25.67;12.47;;;;;;;4.80;63.85;99627.69;5150461;27;20207;-68
2022/12/10 03:09:05;;;;;;;26.57;13.27;;;;;;;4.82;63.89;99629.22;5148744;27;20218;-67
2022/12/10 03:11:33;;;;;;;24.97;12.60;;;;;;;4.80;64.01;99632.94;5147228;27;20307;-68
2022/12/10 03:14:07;;;;;;;27.63;13.43;;;;;;;4.83;64.17;99635.31;5143077;27;20220;-68
2022/12/10 03:16:40;;;;;;;26.93;12.90;;;;;;;4.76;64.38;99632.34;5146796;27;20203;-68
2022/12/10 03:19:13;;;;;;;29.87;14.47;;;;;;;4.73;64.37;99627.38;5143816;27;20235;-68
2022/12/10 03:21:42;;;;;;;29.00;13.73;;;;;;;4.76;64.37;99640.25;5138530;27;20205;-68
2022/12/10 03:24:11;;;;;;;28.10;14.33;;;;;;;4.87;64.01;99616.50;5150009;27;20216;-67
2022/12/10 03:26:41;;;;;;;27.53;14.27;;;;;;;4.90;63.42;99631.19;5145151;27;22191;-67
2022/12/10 03:29:13;;;;;;;29.87;13.33;;;;;;;4.70;63.92;99625.00;5148201;27;20239;-67
2022/12/10 03:31:43;;;;;;;25.77;12.20;;;;;;;4.65;64.54;99624.59;5145072;27;20220;-68
2022/12/10 03:34:12;;;;;;;26.33;12.73;;;;;;;4.65;64.88;99616.72;5153041;27;20220;-68
2022/12/10 03:36:41;;;;;;;25.33;13.00;;;;;;;4.62;65.00;99627.47;5149576;27;20215;-69
2022/12/10 03:39:09;;;;;;;27.67;13.53;;;;;;;4.61;65.20;99623.16;5144123;27;20203;-67
2022/12/10 03:41:37;;;;;;;28.73;13.67;;;;;;;4.61;64.65;99625.78;5149190;27;20232;-68
2022/12/10 03:44:05;;;;;;;26.23;13.17;;;;;;;4.61;64.66;99620.53;5158127;27;20210;-70
2022/12/10 03:46:34;;;;;;;27.17;13.30;;;;;;;4.53;64.88;99623.00;5151264;27;20211;-68
2022/12/10 03:49:03;;;;;;;24.47;13.03;;;;;;;4.53;64.88;99631.69;5145176;27;20216;-67
2022/12/10 03:51:31;;;;;;;26.57;13.20;;;;;;;4.66;64.70;99636.72;5151929;27;20195;-67
2022/12/10 03:53:59;;;;;;;24.23;12.97;;;;;;;4.72;63.98;99638.03;5155682;27;20263;-67
2022/12/10 03:56:26;;;;;;;21.73;11.70;;;;;;;4.74;64.08;99631.69;5150030;27;20215;-67
2022/12/10 03:58:54;;;;;;;25.47;12.20;;;;;;;4.74;63.94;99642.19;5149788;27;20208;-68
2022/12/10 04:01:22;;;;;;;22.03;11.37;;;;;;;4.74;63.78;99641.34;5146217;27;20228;-68
2022/12/10 04:03:50;;;;;;;22.87;12.43;;;;;;;4.75;63.44;99641.19;5147419;27;20218;-66
2022/12/10 04:06:20;;;;;;;26.40;12.17;;;;;;;4.76;63.49;99639.41;5148238;27;20204;-67
2022/12/10 04:08:48;;;;;;;18.57;10.23;;;;;;;4.84;63.18;99643.03;5147727;27;20710;-68
2022/12/10 04:11:30;;;;;;;24.13;12.53;;;;;;;4.81;62.61;99642.50;5143975;27;20231;-68
2022/12/10 04:16:43;;;;;;;26.23;11.87;;;;;;;4.75;62.81;99646.44;5147786;27;20207;-67
2022/12/10 04:19:14;;;;;;;23.77;12.10;;;;;;;4.72;62.68;99651.16;5147376;27;20209;-68
2022/12/10 04:27:21;;;;;;;22.23;11.43;;;;;;;4.68;63.41;99650.56;5140239;27;20228;-68
2022/12/10 04:29:50;;;;;;;24.37;11.90;;;;;;;4.68;63.12;99649.72;5150476;27;20204;-69
2022/12/10 04:32:18;;;;;;;22.10;10.93;;;;;;;4.72;63.32;99649.34;5149293;27;20207;-68
2022/12/10 04:34:47;;;;;;;21.27;11.20;;;;;;;4.73;63.18;99648.41;5143423;27;20633;-67
2022/12/10 04:37:18;;;;;;;23.60;11.50;;;;;;;4.68;62.68;99647.94;5151234;27;20237;-67
2022/12/10 04:39:46;;;;;;;25.27;12.73;;;;;;;4.58;63.30;99651.47;5140813;27;20209;-68
2022/12/10 04:42:14;;;;;;;23.37;10.50;;;;;;;4.59;63.57;99648.72;5146933;27;20231;-68
2022/12/10 04:44:42;;;;;;;25.83;11.93;;;;;;;4.60;63.57;99650.38;5151117;27;20212;-67
2022/12/10 04:47:11;;;;;;;21.93;11.37;;;;;;;4.61;63.81;99651.22;5144369;27;20208;-69
2022/12/10 04:49:40;;;;;;;23.10;11.33;;;;;;;4.65;64.03;99655.28;5149027;27;20207;-67
2022/12/10 04:52:11;;;;;;;23.90;11.97;;;;;;;4.60;64.23;99658.25;5144043;27;20193;-68
2022/12/10 04:54:40;;;;;;;18.57;10.70;;;;;;;4.67;64.24;99656.78;5145736;27;20222;-69
2022/12/10 04:57:08;;;;;;;19.37;10.13;;;;;;;4.72;64.18;99659.88;5147032;27;20204;-68
2022/12/10 04:59:36;;;;;;;19.63;10.47;;;;;;;4.61;63.84;99659.09;5148036;27;20323;-68
2022/12/10 05:02:04;;;;;;;22.10;9.90;;;;;;;4.55;63.79;99668.34;5149602;27;20688;-67
2022/12/10 05:04:32;;;;;;;17.00;9.40;;;;;;;4.50;63.94;99666.09;5144345;27;20203;-66
2022/12/10 05:07:00;;;;;;;18.93;9.60;;;;;;;4.55;63.90;99668.34;5150001;27;20242;-68
2022/12/10 05:09:28;;;;;;;16.73;9.60;;;;;;;4.66;63.34;99673.50;5141346;27;20211;-67
2022/12/10 05:11:57;;;;;;;17.87;9.00;;;;;;;4.61;62.70;99678.31;5147181;27;20279;-68
2022/12/10 05:14:25;;;;;;;18.17;9.60;;;;;;;4.55;63.29;99676.22;5151460;27;20208;-67
2022/12/10 05:16:53;;;;;;;18.20;9.57;;;;;;;4.46;63.53;99680.44;5147548;27;20675;-68
2022/12/10 05:19:23;;;;;;;18.13;9.93;;;;;;;4.47;63.74;99681.28;5133512;27;20212;-67
2022/12/10 05:24:36;;;;;;;20.77;10.13;;;;;;;4.52;63.94;99684.34;5145430;27;20231;-68
2022/12/10 05:27:06;;;;;;;20.03;10.40;;;;;;;4.60;63.22;99681.91;5143933;27;20501;-68
2022/12/10 05:29:34;;;;;;;19.20;9.60;;;;;;;4.63;63.25;99686.06;5142637;27;20200;-68
2022/12/10 05:32:03;;;;;;;21.30;9.93;;;;;;;4.63;63.11;99686.91;5148000;27;20203;-68
2022/12/10 05:34:31;;;;;;;19.13;9.53;;;;;;;4.66;62.60;99686.63;5147174;27;20212;-67
2022/12/10 05:36:59;;;;;;;19.80;9.97;;;;;;;4.57;62.71;99690.06;5139926;27;20208;-68
2022/12/10 05:39:27;;;;;;;20.30;9.83;;;;;;;4.52;62.98;99694.84;5147439;27;20204;-67
2022/12/10 05:41:54;;;;;;;17.13;8.80;;;;;;;4.54;63.00;99693.75;5143866;27;20721;-68
2022/12/10 05:47:05;;;;;;;20.33;9.53;;;;;;;4.58;62.83;99703.97;5145080;27;20513;-68
2022/12/10 05:49:33;;;;;;;19.87;9.17;;;;;;;4.51;62.49;99703.66;5138123;27;20218;-68
2022/12/10 05:52:00;;;;;;;16.57;8.33;;;;;;;4.53;62.58;99701.75;5137185;27;20260;-68
2022/12/10 05:54:28;;;;;;;17.57;8.93;;;;;;;4.46;62.41;99703.25;5141812;27;20208;-69
2022/12/10 05:56:56;;;;;;;18.90;9.20;;;;;;;4.50;62.61;99704.63;5143357;27;20590;-68
2022/12/10 05:59:25;;;;;;;18.60;9.33;;;;;;;4.45;62.40;99709.44;5148884;27;20206;-68
2022/12/10 06:01:53;;;;;;;16.73;9.37;;;;;;;4.35;62.89;99712.00;5143979;27;21685;-68
2022/12/10 06:04:20;;;;;;;21.30;8.40;;;;;;;4.40;62.78;99716.84;5137640;27;20208;-68
2022/12/10 06:06:49;;;;;;;16.20;9.03;;;;;;;4.42;62.58;99712.31;5148917;27;20624;-68
2022/12/10 06:09:17;;;;;;;15.10;8.33;;;;;;;4.39;62.34;99715.22;5146727;27;20228;-68
2022/12/10 06:11:45;;;;;;;18.17;9.27;;;;;;;4.46;62.59;99714.56;5145833;27;21188;-67
2022/12/10 06:14:13;;;;;;;16.20;8.33;;;;;;;4.44;62.41;99716.47;5138081;27;20227;-67
2022/12/10 06:16:42;;;;;;;17.30;8.73;;;;;;;4.50;62.41;99717.75;5142098;27;20232;-68
2022/12/10 06:19:10;;;;;;;17.40;8.27;;;;;;;4.53;62.09;99720.13;5142433;27;20210;-68
2022/12/10 06:21:38;;;;;;;17.20;9.80;;;;;;;4.53;62.41;99722.75;5141456;27;20591;-67
2022/12/10 06:24:07;;;;;;;18.27;8.80;;;;;;;4.61;62.24;99724.75;5147213;27;20210;-68
2022/12/10 06:26:35;;;;;;;19.40;9.63;;;;;;;4.68;62.01;99731.16;5139231;27;20215;-68
2022/12/10 06:29:04;;;;;;;17.87;8.77;;;;;;;4.57;61.90;99732.06;5130856;27;20270;-69
2022/12/10 06:31:32;;;;;;;16.90;9.00;;;;;;;4.48;62.39;99735.44;5147160;27;20223;-67
2022/12/10 06:34:01;;;;;;;15.63;8.60;;;;;;;4.38;62.91;99739.78;5131463;27;20207;-69
2022/12/10 06:36:29;;;;;;;16.40;8.93;;;;;;;4.37;63.33;99748.63;5145542;27;20683;-68
2022/12/10 06:38:56;;;;;;;19.63;8.90;;;;;;;4.43;62.88;99745.47;5147079;27;20210;-67
2022/12/10 06:41:33;;;;;;;18.33;9.30;;;;;;;4.36;63.33;99746.94;5144369;27;20368;-70
2022/12/10 06:44:10;;;;;;;19.47;9.30;;;;;;;4.44;63.19;99755.03;5149709;27;20212;-69
2022/12/10 06:46:40;;;;;;;19.20;8.80;;;;;;;4.63;62.59;99751.72;5144047;27;20196;-68
2022/12/10 06:49:09;;;;;;;21.53;9.27;;;;;;;4.59;62.33;99759.00;5141823;27;20208;-69
2022/12/10 06:51:38;;;;;;;17.67;9.43;;;;;;;4.48;62.86;99764.34;5151333;27;20801;-67
2022/12/10 06:54:05;;;;;;;17.83;8.77;;;;;;;4.50;62.77;99759.75;5157732;27;21118;-67
2022/12/10 06:56:33;;;;;;;20.97;10.53;;;;;;;4.49;62.70;99766.81;5156241;27;20213;-67
2022/12/10 06:59:06;;;;;;;18.20;8.90;;;;;;;4.52;62.72;99770.97;5154171;27;20215;-68
2022/12/10 07:01:34;;;;;;;19.20;9.87;;;;;;;4.45;62.99;99762.78;5143039;27;20325;-67
2022/12/10 07:04:02;;;;;;;19.57;8.93;;;;;;;4.43;62.98;99764.69;5145721;27;20639;-67
2022/12/10 07:06:32;;;;;;;17.73;9.73;;;;;;;4.44;62.69;99766.38;5146406;27;20211;-67
2022/12/10 07:08:59;;;;;;;21.23;9.67;;;;;;;4.46;62.82;99764.44;5148064;27;20218;-68
2022/12/10 07:11:27;;;;;;;18.17;9.00;;;;;;;4.50;62.69;99762.38;5146200;27;20680;-67
2022/12/10 07:13:55;;;;;;;15.03;8.37;;;;;;;4.46;62.95;99768.88;5139742;27;20576;-67
2022/12/10 07:16:25;;;;;;;19.83;10.13;;;;;;;4.39;63.10;99773.78;5147100;27;20204;-68
2022/12/10 07:18:54;;;;;;;19.30;10.23;;;;;;;4.34;63.30;99780.34;5142264;27;20202;-69
2022/12/10 07:21:24;;;;;;;17.13;9.07;;;;;;;4.34;63.45;99780.34;5141662;27;20219;-67
2022/12/10 07:23:57;;;;;;;20.80;9.77;;;;;;;4.31;63.16;99780.63;5135609;27;20833;-68
2022/12/10 07:26:25;;;;;;;20.57;10.20;;;;;;;4.32;63.22;99784.91;5141493;27;20260;-68
2022/12/10 07:28:53;;;;;;;17.50;9.77;;;;;;;4.36;63.26;99789.78;5146908;27;20238;-67
2022/12/10 07:31:22;;;;;;;18.97;9.70;;;;;;;4.36;63.12;99795.03;5143300;27;20208;-70
2022/12/10 07:33:50;;;;;;;17.77;9.70;;;;;;;4.40;63.04;99792.97;5135380;27;20251;-68
2022/12/10 07:36:19;;;;;;;16.27;9.20;;;;;;;4.41;62.90;99797.28;5137425;27;20292;-67
2022/12/10 07:38:47;;;;;;;19.30;9.30;;;;;;;4.43;62.87;99790.09;5146505;27;20667;-67
2022/12/10 07:41:16;;;;;;;18.23;9.43;;;;;;;4.40;63.25;99795.59;5137797;27;20575;-67
2022/12/10 07:43:45;;;;;;;22.67;9.80;;;;;;;4.34;63.62;99796.09;5152215;27;20220;-69
2022/12/10 07:46:16;;;;;;;18.93;9.83;;;;;;;4.34;63.70;99785.59;5140948;27;20207;-68
2022/12/10 07:48:45;;;;;;;17.70;9.23;;;;;;;4.29;63.38;99803.53;5146363;27;20243;-68
2022/12/10 07:51:14;;;;;;;18.83;9.57;;;;;;;4.32;63.19;99808.50;5149189;27;20663;-67
2022/12/10 07:53:42;;;;;;;19.03;8.33;;;;;;;4.35;63.21;99805.66;5149373;27;20211;-67
2022/12/10 07:56:10;;;;;;;19.93;10.90;;;;;;;4.27;63.33;99801.03;5152197;27;20200;-67
2022/12/10 07:58:42;;;;;;;18.40;8.93;;;;;;;4.24;63.65;99809.13;5150621;27;20200;-67
2022/12/10 08:01:12;;;;;;;16.93;8.97;;;;;;;4.26;63.76;99804.59;5148194;27;20338;-68
2022/12/10 08:03:40;;;;;;;16.93;8.77;;;;;;;4.30;63.41;99805.22;5140864;27;20560;-68
2022/12/10 08:06:09;;;;;;;17.47;8.60;;;;;;;4.32;63.05;99811.13;5144172;27;20216;-68
2022/12/10 08:08:38;;;;;;;18.77;8.40;;;;;;;4.35;62.63;99813.53;5149797;27;20206;-68
2022/12/10 08:11:07;;;;;;;13.00;7.47;;;;;;;4.37;62.57;99816.88;5146556;27;20238;-69
2022/12/10 08:13:36;;;;;;;15.07;8.50;;;;;;;4.37;62.38;99816.88;5146354;27;20219;-67
2022/12/10 08:16:09;;;;;;;16.17;8.30;;;;;;;4.38;62.24;99827.25;5148259;27;20212;-67
2022/12/10 08:18:37;;;;;;;15.33;8.20;;;;;;;4.37;62.15;99832.63;5140120;27;20687;-69
2022/12/10 08:21:06;;;;;;;14.00;7.73;;;;;;;4.59;61.92;99823.81;5145082;27;20270;-68
2022/12/10 08:23:35;;;;;;;16.60;8.77;;;;;;;4.64;61.58;99824.28;5148120;27;20318;-68
2022/12/10 08:26:05;;;;;;;16.90;7.90;;;;;;;4.65;61.41;99816.28;5143918;27;20209;-68
2022/12/10 08:28:33;;;;;;;15.53;8.63;;;;;;;4.69;61.25;99822.09;5141024;27;20239;-67
2022/12/10 08:31:01;;;;;;;18.33;9.07;;;;;;;4.62;61.09;99827.03;5141628;27;20204;-68
2022/12/10 08:33:30;;;;;;;15.77;8.20;;;;;;;4.71;61.10;99826.28;5146525;27;20289;-68
2022/12/10 08:36:00;;;;;;;17.03;8.80;;;;;;;4.70;60.95;99824.59;5146309;27;20212;-68
2022/12/10 08:38:28;;;;;;;15.33;8.23;;;;;;;4.70;61.11;99835.13;5139830;27;20204;-68
2022/12/10 08:40:55;;;;;;;15.50;8.17;;;;;;;4.71;61.27;99835.94;5144993;27;20216;-69
2022/12/10 08:43:23;;;;;;;17.47;8.93;;;;;;;4.74;60.93;99831.28;5146513;27;20239;-67
2022/12/10 08:45:51;;;;;;;17.70;9.20;;;;;;;4.82;60.99;99839.38;5142834;27;20223;-78
2022/12/10 08:48:19;;;;;;;15.27;8.03;;;;;;;4.86;60.67;99835.50;5141139;27;20597;-68
2022/12/10 08:50:48;;;;;;;14.90;8.37;;;;;;;4.99;60.28;99847.63;5134744;27;20205;-67
2022/12/10 08:53:16;;;;;;;15.33;8.90;;;;;;;5.14;59.71;99851.59;5146888;27;20219;-70
2022/12/10 08:55:44;;;;;;;20.70;8.93;;;;;;;5.16;59.37;99847.91;5145701;27;20238;-70
2022/12/10 08:58:15;;;;;;;15.03;8.33;;;;;;;5.21;59.01;99850.13;5135582;27;20235;-68
2022/12/10 09:00:43;;;;;;;19.37;8.40;;;;;;;5.24;59.02;99845.47;5135369;27;20210;-70
2022/12/10 09:03:11;;;;;;;16.37;8.77;;;;;;;5.24;58.42;99852.50;5151493;27;20308;-69
2022/12/10 09:05:39;;;;;;;15.10;8.50;;;;;;;5.21;58.40;99850.13;5148366;27;20311;-70
2022/12/10 09:08:11;;;;;;;21.50;8.40;;;;;;;5.18;58.26;99845.16;5138388;27;20204;-70
2022/12/10 09:10:40;;;;;;;15.50;8.40;;;;;;;5.18;58.21;99855.66;5144288;27;20278;-72
2022/12/10 09:13:09;;;;;;;17.33;8.80;;;;;;;5.23;58.07;99853.47;5146565;27;20681;-70
2022/12/10 09:15:37;;;;;;;18.17;8.97;;;;;;;5.37;58.02;99850.50;5154670;27;20208;-69
2022/12/10 09:18:06;;;;;;;15.37;8.87;;;;;;;5.48;57.40;99842.53;5153993;27;20204;-69
2022/12/10 09:20:34;;;;;;;12.87;7.10;;;;;;;5.64;57.38;99852.56;5149136;27;20255;-70
2022/12/10 09:23:02;;;;;;;12.77;9.18;;;;;;;5.98;56.42;99845.28;5144863;27;20447;-64
2022/12/10 09:25:31;;;;;;;14.50;7.87;;;;;;;6.00;55.89;99848.59;5151630;27;20283;-64
2022/12/10 09:27:58;;;;;;;13.23;7.63;;;;;;;6.19;55.60;99847.81;5151724;27;20244;-64
2022/12/10 09:30:26;;;;;;;15.23;7.87;;;;;;;6.36;55.35;99855.88;5147429;27;20208;-64
2022/12/10 09:32:54;;;;;;;14.13;8.20;;;;;;;6.40;54.78;99852.03;5152500;27;20299;-64
2022/12/10 09:35:22;;;;;;;14.93;8.17;;;;;;;6.43;54.52;99850.91;5145747;27;20229;-65
2022/12/10 09:37:49;;;;;;;14.00;7.63;;;;;;;6.46;54.71;99853.28;5153152;27;20269;-63
2022/12/10 09:40:22;;;;;;;15.30;8.10;;;;;;;6.48;54.29;99851.34;5148259;27;20577;-66
2022/12/10 09:42:59;;;;;;;12.40;7.40;;;;;;;6.58;54.28;99856.63;5151672;27;20208;-65
2022/12/10 09:45:33;;;;;;;13.27;7.73;;;;;;;6.61;53.93;99848.41;5150712;27;20731;-66
2022/12/10 09:48:14;;;;;;;15.07;7.97;;;;;;;6.69;53.96;99846.75;5145691;27;20203;-64
2022/12/10 09:50:49;;;;;;;11.47;7.03;;;;;;;6.69;53.52;99845.91;5142717;27;20255;-64
2022/12/10 09:53:20;;;;;;;12.80;8.07;;;;;;;6.67;53.38;99850.53;5148765;27;20281;-64
2022/12/10 09:55:49;;;;;;;13.93;7.97;;;;;;;6.65;53.46;99857.72;5146495;27;20257;-65
2022/12/10 09:58:21;;;;;;;14.90;8.33;;;;;;;6.60;53.80;99855.47;5145771;27;20213;-63
2022/12/10 10:00:59;;;;;;;14.23;7.47;;;;;;;6.55;53.93;99855.06;5132006;27;20209;-64
2022/12/10 10:03:32;;;;;;;14.53;8.20;;;;;;;6.63;53.98;99857.03;5141005;27;20280;-64
2022/12/10 10:06:00;;;;;;;12.60;7.40;;;;;;;6.61;54.03;99851.06;5144741;27;20212;-64
2022/12/10 10:08:34;;;;;;;14.27;8.37;;;;;;;6.69;53.55;99851.19;5133249;27;20202;-65
2022/12/10 10:11:02;;;;;;;13.77;7.93;;;;;;;6.73;53.75;99852.59;5148323;27;20229;-65
2022/12/10 10:13:36;;;;;;;14.40;8.50;;;;;;;6.78;53.74;99853.00;5133605;27;20206;-64
2022/12/10 10:16:21;;;;;;;15.63;8.63;;;;;;;6.79;54.50;99852.03;5140988;27;20219;-63
2022/12/10 10:18:53;;;;;;;15.23;9.07;;;;;;;6.92;54.01;99847.31;5152218;27;20197;-64
2022/12/10 10:21:23;;;;;;;13.57;8.03;;;;;;;6.96;53.64;99853.97;5147045;27;20211;-65
2022/12/10 10:23:52;;;;;;;13.43;8.17;;;;;;;6.96;53.28;99848.69;5148181;27;20225;-65
2022/12/10 10:26:20;;;;;;;18.37;9.60;;;;;;;7.12;52.92;99856.06;5143503;27;20635;-65
2022/12/10 10:28:54;;;;;;;12.97;7.77;;;;;;;7.15;52.46;99856.59;5144422;27;20244;-65
2022/12/10 10:31:25;;;;;;;12.87;7.93;;;;;;;7.24;52.64;99856.72;5154983;27;20207;-64
2022/12/10 10:33:57;;;;;;;15.43;9.13;;;;;;;7.32;52.30;99859.47;5148905;27;20207;-64
2022/12/10 10:36:27;;;;;;;16.17;8.60;;;;;;;7.26;52.38;99860.88;5147237;27;20209;-64
2022/12/10 10:38:55;;;;;;;11.43;7.43;;;;;;;7.29;52.57;99862.41;5151859;27;20299;-66
2022/12/10 10:41:25;;;;;;;13.60;8.50;;;;;;;7.29;52.76;99859.78;5149270;27;20288;-65
2022/12/10 10:44:03;;;;;;;12.80;7.83;;;;;;;7.19;52.74;99859.78;5145561;27;20235;-65
2022/12/10 10:46:38;;;;;;;12.87;7.80;;;;;;;7.07;53.11;99851.19;5145894;27;20210;-64
2022/12/10 10:49:24;;;;;;;11.83;7.43;;;;;;;6.86;53.56;99863.69;5145288;27;20197;-65
2022/12/10 10:51:53;;;;;;;14.83;8.20;;;;;;;6.69;54.13;99859.09;5146209;27;20552;-65
2022/12/10 10:54:38;;;;;;;12.27;7.53;;;;;;;6.67;54.80;99864.53;5145679;27;20209;-65
2022/12/10 10:57:12;;;;;;;13.13;7.43;;;;;;;6.60;54.68;99868.66;5144126;27;20713;-65
2022/12/10 10:59:42;;;;;;;13.83;7.13;;;;;;;6.51;55.01;99876.56;5140013;27;20202;-62
2022/12/10 11:02:20;;;;;;;15.27;7.67;;;;;;;6.45;55.13;99874.47;5143975;27;20202;-62
2022/12/10 11:04:50;;;;;;;14.70;8.03;;;;;;;6.36;55.47;99881.38;5147538;27;20600;-62
2022/12/10 11:07:26;;;;;;;12.73;7.53;;;;;;;6.25;55.71;99874.41;5144096;27;20291;-63
2022/12/10 11:09:54;;;;;;;11.93;7.37;;;;;;;6.21;56.08;99874.84;5153203;27;20197;-62
2022/12/10 11:12:34;;;;;;;13.50;8.20;;;;;;;6.21;56.41;99878.31;5144643;27;20320;-63
2022/12/10 11:15:29;;;;;;;16.20;7.97;;;;;;;6.20;56.60;99874.00;5149787;27;20205;-63
2022/12/10 11:17:57;;;;;;;16.77;9.10;;;;;;;6.20;57.02;99884.53;5151884;27;20205;-61
2022/12/10 11:20:29;;;;;;;12.37;7.80;;;;;;;6.23;56.86;99880.81;5149466;27;20200;-63
2022/12/10 11:22:59;;;;;;;13.33;7.97;;;;;;;6.29;56.43;99875.84;5150590;27;20322;-63
2022/12/10 11:25:39;;;;;;;13.67;7.77;;;;;;;6.30;55.84;99871.41;5140801;27;20225;-62
2022/12/10 11:28:17;;;;;;;15.53;8.20;;;;;;;6.34;56.18;99872.78;5149142;27;20234;-63
2022/12/10 11:30:59;;;;;;;14.33;7.97;;;;;;;6.39;55.96;99876.69;5143646;27;20213;-63
2022/12/10 11:33:41;;;;;;;15.97;8.83;;;;;;;6.36;56.01;99882.22;5145717;27;20209;-64
2022/12/10 11:36:31;;;;;;;15.43;8.90;;;;;;;6.38;56.25;99879.44;5147581;27;20205;-64
2022/12/10 11:39:07;;;;;;;14.60;8.43;;;;;;;6.34;56.55;99875.41;5148158;27;20208;-65
2022/12/10 11:41:44;;;;;;;15.43;9.03;;;;;;;6.19;56.51;99877.59;5157431;27;20276;-63
2022/12/10 11:44:23;;;;;;;12.73;7.57;;;;;;;6.09;56.68;99874.09;5151185;27;20219;-64
2022/12/10 11:47:05;;;;;;;14.93;8.60;;;;;;;6.05;57.00;99883.25;5153661;27;20329;-64
2022/12/10 11:49:39;;;;;;;15.50;8.70;;;;;;;5.92;57.19;99872.94;5149208;27;20208;-64
2022/12/10 11:52:17;;;;;;;16.03;7.70;;;;;;;5.90;57.45;99885.38;5147819;27;20287;-64
2022/12/10 11:55:06;;;;;;;15.83;8.77;;;;;;;5.93;57.67;99884.31;5153976;27;20208;-64
2022/12/10 11:57:49;;;;;;;14.10;8.10;;;;;;;5.95;57.99;99893.75;5147668;27;20201;-63